Terminal Aerodrome Forecast
Issued by NWS

Home | Current Version | Previous Version | Text Only | Print | Product List | Glossary On
Versions: 1 2 3 4 5 6 7 8 9 10 11 12 13 14 15 16 17 18 19 20 21 22 23 24 25 26 27 28 29 30 31 32 33 34 35 36 37 38 39 40 41 42 43 44 45 46 47 48 49 50
000
FTUS46 KPQR 190520
TAFONP
TAF
KONP 190520Z 1906/2006 19025G35KT P6SM SCT009 OVC018
      TEMPO 1906/1910 4SM -RA BR OVC009
     FM191000 19028G37KT 2SM RA BR OVC005
     FM191500 20016G26KT 4SM -RA BR OVC007
     FM200000 20011G20KT P6SM -SHRA SCT007 BKN020 BKN050=

USA.gov is the U.S. government's official web portal to all federal, state and local government web resources and services.